createdAt,value
2019-04-30T00:00:02.788Z,6.17
2019-04-30T00:10:02.156Z,6.14
2019-04-30T00:20:07.617Z,6.14
2019-04-30T00:30:05.318Z,6.13
2019-04-30T00:40:02.610Z,6.18
2019-04-30T00:50:08.134Z,6.19
2019-04-30T01:00:02.754Z,6.18
2019-04-30T01:10:08.290Z,6.21
2019-04-30T01:20:02.665Z,6.23
2019-04-30T01:30:02.839Z,6.22
2019-04-30T01:40:03.028Z,6.24
2019-04-30T01:50:09.202Z,6.23
2019-04-30T02:00:03.045Z,6.19
2019-04-30T02:10:08.711Z,6.21
2019-04-30T02:20:02.299Z,6.21
2019-04-30T02:30:11.050Z,6.25
2019-04-30T02:40:02.625Z,6.29
2019-04-30T02:50:15.037Z,6.28
2019-04-30T03:00:02.855Z,6.30
2019-04-30T03:10:09.998Z,6.29
2019-04-30T03:20:03.396Z,6.32
2019-04-30T03:30:03.041Z,6.34
2019-04-30T03:40:02.148Z,6.36
2019-04-30T03:50:02.938Z,6.37
2019-04-30T04:00:03.262Z,6.39
2019-04-30T04:10:10.055Z,6.43
2019-04-30T04:20:02.645Z,6.46
2019-04-30T04:30:03.195Z,6.47
2019-04-30T04:40:02.324Z,6.49
2019-04-30T04:50:02.054Z,6.53
2019-04-30T05:00:07.295Z,6.56
2019-04-30T05:10:02.500Z,6.56
2019-04-30T05:20:02.382Z,6.63
2019-04-30T05:30:02.623Z,6.63
2019-04-30T05:40:02.508Z,6.63
2019-04-30T05:50:02.268Z,6.64
2019-04-30T06:00:02.678Z,6.63
2019-04-30T06:10:02.362Z,6.68
2019-04-30T06:20:02.286Z,6.69
2019-04-30T06:30:09.663Z,6.74
2019-04-30T06:40:02.213Z,6.77
2019-04-30T06:50:09.268Z,6.81
2019-04-30T07:00:03.344Z,6.84
2019-04-30T07:10:02.332Z,6.85
2019-04-30T07:20:02.740Z,6.94
2019-04-30T07:30:02.983Z,7.05
2019-04-30T07:40:02.015Z,7.08
2019-04-30T07:50:02.670Z,7.19
2019-04-30T08:00:03.054Z,7.17
2019-04-30T08:10:08.721Z,7.24
2019-04-30T08:20:02.301Z,7.25
2019-04-30T08:30:19.005Z,7.20
2019-04-30T08:40:03.497Z,7.24
2019-04-30T08:50:02.971Z,7.33
2019-04-30T09:00:03.177Z,7.48
2019-04-30T09:10:04.520Z,7.67
2019-04-30T09:20:09.087Z,8.20
2019-04-30T09:30:02.906Z,9.02
2019-04-30T09:40:14.757Z,8.78
2019-04-30T09:50:02.684Z,8.51
2019-04-30T10:00:02.941Z,8.85
2019-04-30T10:10:02.411Z,9.00
2019-04-30T10:20:02.516Z,9.68
2019-04-30T10:30:02.787Z,10.46
2019-04-30T10:40:02.583Z,9.92
2019-04-30T10:50:09.857Z,10.15
2019-04-30T11:00:02.701Z,10.41
2019-04-30T11:10:08.714Z,11.60
2019-04-30T11:20:02.454Z,10.73
2019-04-30T11:30:03.958Z,11.98
2019-04-30T11:40:02.979Z,11.30
2019-04-30T11:50:08.144Z,12.76
2019-04-30T12:00:02.926Z,12.44
2019-04-30T12:10:09.458Z,12.96
2019-04-30T12:20:02.947Z,12.64
2019-04-30T12:30:03.110Z,12.65
2019-04-30T12:40:02.762Z,13.45
2019-04-30T12:50:02.789Z,13.22
2019-04-30T13:00:03.041Z,13.61
2019-04-30T13:10:03.419Z,13.85
2019-04-30T13:20:02.776Z,13.88
2019-04-30T13:30:03.097Z,13.63
2019-04-30T13:40:02.274Z,13.28
2019-04-30T13:50:02.274Z,14.56
2019-04-30T14:00:02.514Z,13.58
2019-04-30T14:10:09.888Z,14.49
2019-04-30T14:20:02.577Z,14.51
2019-04-30T14:30:02.776Z,13.61
2019-04-30T14:40:10.225Z,13.57
2019-04-30T14:50:09.690Z,13.51
2019-04-30T15:00:03.086Z,13.26
2019-04-30T15:10:08.109Z,13.21
2019-04-30T15:20:08.752Z,13.38
2019-04-30T15:30:02.553Z,13.17
2019-04-30T15:40:02.236Z,12.76
2019-04-30T15:50:02.925Z,12.65
2019-04-30T16:00:03.409Z,12.63
2019-04-30T16:10:02.393Z,12.53
2019-04-30T16:20:02.354Z,12.53
2019-04-30T16:30:02.758Z,12.58
2019-04-30T16:40:02.664Z,12.51
2019-04-30T16:50:02.448Z,12.57
2019-04-30T17:00:02.791Z,12.37
2019-04-30T17:10:02.480Z,12.12
2019-04-30T17:20:02.685Z,12.01
2019-04-30T17:30:03.009Z,11.82
2019-04-30T17:40:09.380Z,11.62
2019-04-30T17:50:02.774Z,11.40
2019-04-30T18:00:15.526Z,11.31
2019-04-30T18:10:02.008Z,11.18
2019-04-30T18:20:02.934Z,11.15
2019-04-30T18:30:03.159Z,11.04
2019-04-30T18:40:02.333Z,11.00
2019-04-30T18:50:02.052Z,10.89
2019-04-30T19:00:03.344Z,10.89
2019-04-30T19:10:02.343Z,10.83
2019-04-30T19:20:02.297Z,10.62
2019-04-30T19:30:02.580Z,10.71
2019-04-30T19:40:02.880Z,10.73
2019-04-30T19:50:02.613Z,10.60
2019-04-30T20:00:02.875Z,10.53
2019-04-30T20:10:04.045Z,10.47
2019-04-30T20:20:08.957Z,10.40
2019-04-30T20:30:02.755Z,10.32
2019-04-30T20:40:02.500Z,10.34
2019-04-30T20:50:02.463Z,10.30
2019-04-30T21:00:02.729Z,10.22
2019-04-30T21:10:10.099Z,10.17
2019-04-30T21:20:02.350Z,10.14
2019-04-30T21:30:03.683Z,10.10
2019-04-30T21:40:03.118Z,10.03
2019-04-30T21:50:02.437Z,9.99
2019-04-30T22:00:02.680Z,9.94
2019-04-30T22:10:02.671Z,9.95
2019-04-30T22:20:02.711Z,9.86
2019-04-30T22:30:02.956Z,9.77
2019-04-30T22:40:02.840Z,9.62
2019-04-30T22:50:08.182Z,9.51
2019-04-30T23:00:02.866Z,9.35
2019-04-30T23:10:02.169Z,9.10
2019-04-30T23:20:02.062Z,8.80
2019-04-30T23:30:03.824Z,8.68
2019-04-30T23:40:08.031Z,8.50
2019-04-30T23:50:07.652Z,8.28
